Cairo, Missouri
Current Conditions -  °F | °C
As of 7:15 AM on Monday 22 Dec 2014 (Local Time) from KVER Reporting Station
Overcast Overcast  
Wind Chill: 36°   Ceiling: 7000
Heat Index: 40°   Visibility: 10mi
Dew Point: 39°   Wind: 6mph
Humidity: 95%   Direction: 120°ESE
Pressure: 29.67"   Gusts: NA
Location:  39.51°N, 92.44°W
Report Text: KVER 221315Z AUTO 12005KT 10SM SCT027 OVC070 05/04 A2967 RMK AO2 T00450038
Loading
Personal Weather Stations






























Interactive Weather Map New forecast layout! Learn more

10-Day Weather Forecast

Advertisements
Track Severe Weather on mobile